Flood From: 18-02-2018 10:00 Until: 19-02-2018 06:00 warning for: Flood Level: Yellow info button

Although rather usual in this region, locally or potentially dangerous phenomena are expected. (such as local winds, summer thunderstorms, rising streams or high waves) Be aware and pay attention to the latest weather updates, especially if you carry out activities exposed to weather or close to a stream or shoreline. 


Meteo18 Weather Cam more information Meteo18 Weather Cam


Thunder radar more information blitzortung!


Rain radar more information rain snow radar


Visit our other weather sites:

Template documentation
and downloads

And another site



Weather Underground History page Text

Daily Summary for August 1, 2016 Units:  Metric    English   Both
« Previous Day
Next Day »
Daily Weekly Monthly Yearly Custom
  High: Low: Average:
Temperature: -17.8 °C -11.1 °C -7 °C
Dew Point: -17.8 °C -12.8 °C -11.3 °C
Humidity: Humidity % 37 % 63 %
Wind Speed: 0 km/h 0 km/h 4.7 km/h
Wind Gust: 0 km/h - -
Wind:- - West
Pressure: 0 hPa 34486.4 hPa -
Precipitation: 0 mm    
Historical Graphs
 
 
Tabular Data for August 1, 2016
Time Temperature Dew Point Pressure Wind Wind Speed Wind Gust Humidity Rainfall Rate (Hourly)
-17.8 °C -17.8 °C 0 hPa Calm     Humidity % 0 mm
00:02 -8 °C -10.8 °C 34486.4 hPa Calm     72 % 0 mm
00:12 -8.2 °C -10.7 °C 34486.4 hPa Calm     75 % 0 mm
00:17 -8.2 °C -10.7 °C 34486.4 hPa Calm     75 % 0 mm
00:22 -8.3 °C -10.8 °C 34486.4 hPa Calm     75 % 0 mm
00:27 -8.4 °C -10.9 °C 34486.4 hPa Calm     75 % 0 mm
00:32 -8.5 °C -10.9 °C 34486.4 hPa Calm     76 % 0 mm
00:42 -8.7 °C -10.9 °C 34486.4 hPa Calm     77 % 0 mm
00:52 -8.8 °C -10.9 °C 34486.4 hPa Calm     78 % 0 mm
00:57 -8.8 °C -10.8 °C 34486.4 hPa Calm     79 % 0 mm
01:02 -8.6 °C -10.8 °C 34486.4 hPa Calm     77 % 0 mm
01:12 -8.9 °C -10.9 °C 34486.4 hPa Calm     79 % 0 mm
01:17 -9 °C -10.9 °C 34486.4 hPa Calm     80 % 0 mm
01:22 -9 °C -10.8 °C 34496.6 hPa NE 5.1 km/h   81 % 0 mm
01:32 -9.2 °C -10.9 °C 34496.6 hPa Calm   10.3 km/h 82 % 0 mm
01:37 -9.2 °C -11 °C 34496.6 hPa Calm   10.3 km/h 81 % 0 mm
01:42 -9 °C -10.8 °C 34496.6 hPa North 2.6 km/h 10.3 km/h 81 % 0 mm
01:47 -8.9 °C -11.2 °C 34496.6 hPa WNW 2.6 km/h 5.1 km/h 77 % 0 mm
01:52 -9 °C -11 °C 34496.6 hPa Calm   5.1 km/h 79 % 0 mm
02:02 -8.9 °C -11.1 °C 34496.6 hPa Calm   5.1 km/h 78 % 0 mm
02:07 -9.1 °C -10.9 °C 34496.6 hPa WNW 2.6 km/h 2.6 km/h 80 % 0 mm
02:12 -9.3 °C -11.1 °C 34486.4 hPa Calm   2.6 km/h 81 % 0 mm
02:17 -9.4 °C -11.1 °C 34496.6 hPa Calm   2.6 km/h 82 % 0 mm
02:22 -9.3 °C -11.1 °C 34496.6 hPa Calm   2.6 km/h 82 % 0 mm
02:37 -9.6 °C -11.2 °C 34496.6 hPa Calm   5.1 km/h 83 % 0 mm
02:42 -9.7 °C -11.3 °C 34496.6 hPa Calm   5.1 km/h 83 % 0 mm
02:47 -9.7 °C -11.2 °C 34496.6 hPa Calm   2.6 km/h 84 % 0 mm
02:52 -9.6 °C -11.1 °C 34496.6 hPa Calm   2.6 km/h 84 % 0 mm
02:57 -9.6 °C -11.1 °C 34496.6 hPa Calm     84 % 0 mm
03:02 -9.7 °C -11.2 °C 34496.6 hPa Calm     84 % 0 mm
03:12 -9.7 °C -11.2 °C 34496.6 hPa Calm     84 % 0 mm
03:17 -9.8 °C -11.2 °C 34496.6 hPa Calm     85 % 0 mm
03:22 -9.8 °C -11.2 °C 34496.6 hPa Calm     85 % 0 mm
03:27 -9.9 °C -11.2 °C 34496.6 hPa NNE 2.6 km/h   86 % 0 mm
03:32 -10 °C -11.3 °C 34496.6 hPa Calm   2.6 km/h 86 % 0 mm
03:37 -10.1 °C -11.3 °C 34496.6 hPa Calm   2.6 km/h 87 % 0 mm
03:42 -10.1 °C -11.4 °C 34496.6 hPa Calm   2.6 km/h 86 % 0 mm
03:52 -10.2 °C -11.3 °C 34496.6 hPa WNW 2.6 km/h 5.1 km/h 87 % 0 mm
04:02 -10.1 °C -11.2 °C 34496.6 hPa Calm   7.7 km/h 87 % 0 mm
04:07 -10.1 °C -11.3 °C 34496.6 hPa Calm   7.7 km/h 87 % 0 mm
04:12 -10.3 °C -11.6 °C 34496.6 hPa NNE 2.6 km/h 2.6 km/h 86 % 0 mm
04:17 -10.4 °C -11.6 °C 34496.6 hPa NNW 2.6 km/h 5.1 km/h 87 % 0 mm
04:22 -10.6 °C -11.7 °C 34496.6 hPa NNW 2.6 km/h 7.7 km/h 88 % 0 mm
04:27 -10.7 °C -11.7 °C 34496.6 hPa NW 2.6 km/h 7.7 km/h 89 % 0 mm
04:32 -10.6 °C -11.6 °C 34496.6 hPa Calm   10.3 km/h 89 % 0 mm
04:37 -10.5 °C -11.6 °C 34496.6 hPa Calm   10.3 km/h 88 % 0 mm
04:42 -10.5 °C -11.7 °C 34496.6 hPa Calm   10.3 km/h 87 % 0 mm
04:47 -10.5 °C -11.6 °C 34496.6 hPa Calm   7.7 km/h 88 % 0 mm
04:52 -10.5 °C -11.5 °C 34496.6 hPa Calm   2.6 km/h 89 % 0 mm
04:57 -10.4 °C -11.4 °C 34496.6 hPa Calm     89 % 0 mm
05:02 -10.4 °C -11.4 °C 34496.6 hPa Calm     88 % 0 mm
05:07 -10.5 °C -11.7 °C 34496.6 hPa Calm     87 % 0 mm
05:12 -10.6 °C -11.7 °C 34496.6 hPa Calm     88 % 0 mm
05:17 -10.7 °C -11.7 °C 34496.6 hPa Calm     89 % 0 mm
05:27 -10.7 °C -11.6 °C 34496.6 hPa Calm   5.1 km/h 90 % 0 mm
05:32 -10.7 °C -11.6 °C 34496.6 hPa Calm   5.1 km/h 90 % 0 mm
05:37 -10.7 °C -11.6 °C 34496.6 hPa Calm   5.1 km/h 90 % 0 mm
05:42 -10.7 °C -11.6 °C 34496.6 hPa Calm     90 % 0 mm
05:47 -10.7 °C -11.5 °C 34496.6 hPa WNW 2.6 km/h 2.6 km/h 91 % 0 mm
05:52 -10.7 °C -11.5 °C 34496.6 hPa Calm   2.6 km/h 91 % 0 mm
05:57 -10.7 °C -11.5 °C 34496.6 hPa NNE 5.1 km/h 5.1 km/h 91 % 0 mm
06:02 -10.7 °C -11.4 °C 34496.6 hPa North 2.6 km/h 2.6 km/h 92 % 0 mm
06:12 -10.7 °C -11.4 °C 34496.6 hPa Calm   5.1 km/h 91 % 0 mm
06:17 -10.8 °C -11.7 °C 34496.6 hPa Calm   5.1 km/h 90 % 0 mm
06:22 -10.8 °C -11.6 °C 34496.6 hPa Calm   2.6 km/h 91 % 0 mm
06:27 -10.8 °C -11.6 °C 34496.6 hPa Calm   2.6 km/h 91 % 0 mm
06:32 -10.9 °C -11.7 °C 34496.6 hPa Calm   2.6 km/h 91 % 0 mm
06:37 -10.9 °C -11.7 °C 34496.6 hPa Calm   2.6 km/h 91 % 0 mm
06:42 -11 °C -11.8 °C 34510.1 hPa Calm   2.6 km/h 91 % 0 mm
06:47 -11.1 °C -11.8 °C 34510.1 hPa Calm   2.6 km/h 91 % 0 mm
06:57 -10.9 °C -11.6 °C 34496.6 hPa Calm   2.6 km/h 93 % 0 mm
07:02 -10.9 °C -11.6 °C 34496.6 hPa Calm   2.6 km/h 92 % 0 mm
07:12 -10.8 °C -11.6 °C 34510.1 hPa Calm   2.6 km/h 92 % 0 mm
07:17 -10.7 °C -11.4 °C 34510.1 hPa Calm   2.6 km/h 92 % 0 mm
07:22 -10.4 °C -11.2 °C 34510.1 hPa Calm   2.6 km/h 92 % 0 mm
07:27 -10.3 °C -11.2 °C 34510.1 hPa Calm     90 % 0 mm
07:32 -10.1 °C -10.9 °C 34510.1 hPa Calm   2.6 km/h 90 % 0 mm
07:37 -9.8 °C -10.9 °C 34510.1 hPa Calm   2.6 km/h 88 % 0 mm
07:42 -9.7 °C -11.1 °C 34510.1 hPa Calm   2.6 km/h 85 % 0 mm
07:47 -9.7 °C -10.9 °C 34520.3 hPa WNW 2.6 km/h 2.6 km/h 86 % 0 mm
07:57 -9.1 °C -10.5 °C 34520.3 hPa Calm   2.6 km/h 85 % 0 mm
08:02 -8.7 °C -10.4 °C 34520.3 hPa Calm   2.6 km/h 82 % 0 mm
08:07 -8.6 °C -10.3 °C 34520.3 hPa Calm   2.6 km/h 82 % 0 mm
08:12 -8.4 °C -10.2 °C 34520.3 hPa North 5.1 km/h 12.9 km/h 82 % 0 mm
08:17 -8.3 °C -10.2 °C 34520.3 hPa NNW 2.6 km/h 12.9 km/h 81 % 0 mm
08:22 -8.3 °C -10.2 °C 34520.3 hPa NW 2.6 km/h 12.9 km/h 80 % 0 mm
08:27 -8.2 °C -10.2 °C 34520.3 hPa NNW 12.9 km/h 12.9 km/h 80 % 0 mm
08:32 -8.2 °C -10.2 °C 34520.3 hPa NNW 5.1 km/h 12.9 km/h 79 % 0 mm
08:37 -8 °C -10.1 °C 34533.8 hPa North 5.1 km/h 12.9 km/h 79 % 0 mm
08:42 -7.9 °C -10.2 °C 34533.8 hPa WNW 7.7 km/h 12.9 km/h 77 % 0 mm
08:47 -7.9 °C -10.2 °C 34533.8 hPa WNW 7.7 km/h 10.3 km/h 77 % 0 mm
08:52 -7.8 °C -10.2 °C 34533.8 hPa NNW 7.7 km/h 12.9 km/h 76 % 0 mm
08:57 -7.8 °C -10.2 °C 34533.8 hPa NW 2.6 km/h 15.6 km/h 76 % 0 mm
09:02 -7.7 °C -10.2 °C 34533.8 hPa NNE 5.1 km/h 15.6 km/h 75 % 0 mm
09:07 -7.6 °C -10.2 °C 34533.8 hPa North 2.6 km/h 18.2 km/h 74 % 0 mm
09:12 -7.4 °C -10.2 °C 34533.8 hPa NE 2.6 km/h 18.2 km/h 73 % 0 mm
09:17 -7.3 °C -10.2 °C 34533.8 hPa North 7.7 km/h 18.2 km/h 72 % 0 mm
09:22 -7.3 °C -10.3 °C 34533.8 hPa North 10.3 km/h 15.6 km/h 71 % 0 mm
09:32 -7.1 °C -10.2 °C 34533.8 hPa North 12.9 km/h 18.2 km/h 70 % 0 mm
09:42 -6.9 °C -10.1 °C 34533.8 hPa NW 5.1 km/h 20.8 km/h 69 % 0 mm
09:52 -6.8 °C -10.3 °C 34544 hPa NNE 15.6 km/h 20.8 km/h 67 % 0 mm
09:57 -6.8 °C -10.4 °C 34544 hPa North 7.7 km/h 25.9 km/h 66 % 0 mm
10:02 -6.8 °C -10.3 °C 34544 hPa WNW 7.7 km/h 25.9 km/h 67 % 0 mm
10:07 -6.8 °C -10.6 °C 34544 hPa NE 10.3 km/h 28.5 km/h 65 % 0 mm
10:12 -6.7 °C -10.3 °C 34544 hPa NE 10.3 km/h 28.5 km/h 66 % 0 mm
10:17 -6.6 °C -10.3 °C 34544 hPa Calm   28.5 km/h 65 % 0 mm
10:22 -6.5 °C -10.3 °C 34544 hPa NW 10.3 km/h 23.3 km/h 65 % 0 mm
10:27 -6.4 °C -10.2 °C 34544 hPa NNE 10.3 km/h 18.2 km/h 65 % 0 mm
10:32 -6.3 °C -10.4 °C 34544 hPa NW 7.7 km/h 15.6 km/h 62 % 0 mm
10:37 -6.2 °C -10.4 °C 34544 hPa NNE 12.9 km/h 18.2 km/h 62 % 0 mm
10:42 -6.1 °C -10.4 °C 34544 hPa NNW 5.1 km/h 18.2 km/h 61 % 0 mm
10:47 -6.1 °C -10.6 °C 34544 hPa North 10.3 km/h 23.3 km/h 60 % 0 mm
10:52 -6 °C -10.6 °C 34544 hPa NE 5.1 km/h 23.3 km/h 59 % 0 mm
10:57 -5.8 °C -10.6 °C 34544 hPa WNW 10.3 km/h 23.3 km/h 58 % 0 mm
11:02 -5.8 °C -10.6 °C 34544 hPa NE 5.1 km/h 18.2 km/h 58 % 0 mm
11:07 -5.8 °C -11 °C 34544 hPa NE 10.3 km/h 23.3 km/h 55 % 0 mm
11:12 -5.7 °C -10.9 °C 34544 hPa Calm   23.3 km/h 55 % 0 mm
11:17 -5.7 °C -10.8 °C 34544 hPa Calm   23.3 km/h 56 % 0 mm
11:22 -5.7 °C -10.9 °C 34544 hPa NE 2.6 km/h 20.8 km/h 55 % 0 mm
11:32 -5.3 °C -10.6 °C 34554.1 hPa NNW 12.9 km/h 18.2 km/h 55 % 0 mm
11:37 -5.4 °C -10.8 °C 34554.1 hPa Calm   28.5 km/h 54 % 0 mm
11:42 -5.1 °C -10.7 °C 34554.1 hPa Calm   28.5 km/h 53 % 0 mm
11:47 -4.8 °C -10.8 °C 34544 hPa Calm   28.5 km/h 51 % 0 mm
11:52 -4.9 °C -11 °C 34554.1 hPa North 5.1 km/h 12.9 km/h 50 % 0 mm
11:57 -4.9 °C -11.1 °C 34544 hPa North 15.6 km/h 18.2 km/h 50 % 0 mm
12:02 -5.1 °C -10.8 °C 34544 hPa WNW 5.1 km/h 18.2 km/h 52 % 0 mm
12:07 -4.9 °C -11.2 °C 34544 hPa Calm   23.3 km/h 49 % 0 mm
12:12 -4.9 °C -11.2 °C 34544 hPa NW 7.7 km/h 23.3 km/h 49 % 0 mm
12:17 -4.9 °C -11.4 °C 34544 hPa West 7.7 km/h 23.3 km/h 48 % 0 mm
12:22 -4.7 °C -11.2 °C 34544 hPa NW 5.1 km/h 20.8 km/h 48 % 0 mm
12:27 -4.5 °C -11.2 °C 34544 hPa WNW 7.7 km/h 20.8 km/h 47 % 0 mm
12:32 -4.8 °C -11.4 °C 34544 hPa NW 7.7 km/h 20.8 km/h 47 % 0 mm
12:42 -4.6 °C -11.3 °C 34544 hPa Calm   20.8 km/h 47 % 0 mm
12:47 -4.6 °C -11.2 °C 34544 hPa WNW 15.6 km/h 18.2 km/h 47 % 0 mm
12:52 -4.7 °C -11.2 °C 34544 hPa WNW 12.9 km/h 25.9 km/h 48 % 0 mm
12:57 -4.9 °C -11.2 °C 34544 hPa NNW 5.1 km/h 25.9 km/h 49 % 0 mm
13:02 -4.9 °C -11 °C 34544 hPa NNW 15.6 km/h 25.9 km/h 50 % 0 mm
13:07 -4.8 °C -11.4 °C 34544 hPa NW 10.3 km/h 28.5 km/h 47 % 0 mm
13:12 -4.6 °C -12 °C 34544 hPa WNW 12.9 km/h 28.5 km/h 43 % 0 mm
13:17 -4.6 °C -11.6 °C 34544 hPa NW 20.8 km/h 23.3 km/h 45 % 0 mm
13:22 -4.5 °C -11.9 °C 34533.8 hPa WNW 18.2 km/h 25.9 km/h 43 % 0 mm
13:32 -4.6 °C -11.6 °C 34533.8 hPa NW 7.7 km/h 31.1 km/h 45 % 0 mm
13:37 -4.7 °C -11.9 °C 34533.8 hPa WNW 12.9 km/h 33.6 km/h 44 % 0 mm
13:42 -4.7 °C -12.1 °C 34533.8 hPa Calm   33.6 km/h 43 % 0 mm
13:52 -4.3 °C -11.6 °C 34533.8 hPa WNW 23.3 km/h 31.1 km/h 44 % 0 mm
13:57 -4.4 °C -11.6 °C 34533.8 hPa WNW 10.3 km/h 28.5 km/h 44 % 0 mm
14:02 -4.4 °C -11.7 °C 34533.8 hPa WNW 5.1 km/h 28.5 km/h 44 % 0 mm
14:07 -4.6 °C -11.8 °C 34533.8 hPa NW 5.1 km/h 28.5 km/h 44 % 0 mm
14:12 -4.6 °C -11.8 °C 34533.8 hPa WNW 2.6 km/h 23.3 km/h 44 % 0 mm
14:17 -4.6 °C -11.8 °C 34533.8 hPa NNW 7.7 km/h 23.3 km/h 44 % 0 mm
14:22 -4.5 °C -11.7 °C 34533.8 hPa NNW 10.3 km/h 25.9 km/h 44 % 0 mm
14:27 -4.3 °C -11.5 °C 34533.8 hPa NNW 10.3 km/h 25.9 km/h 44 % 0 mm
14:32 -4.2 °C -11.7 °C 34533.8 hPa NW 20.8 km/h 31.1 km/h 43 % 0 mm
14:37 -4.3 °C -11.5 °C 34533.8 hPa NNW 5.1 km/h 31.1 km/h 44 % 0 mm
14:42 -4.2 °C -11.7 °C 34533.8 hPa WNW 15.6 km/h 31.1 km/h 43 % 0 mm
14:47 -4.3 °C -12.1 °C 34533.8 hPa North 18.2 km/h 28.5 km/h 41 % 0 mm
14:52 -4.1 °C -12.1 °C 34533.8 hPa NNW 12.9 km/h 28.5 km/h 40 % 0 mm
14:57 -4.1 °C -11.7 °C 34533.8 hPa NNW 15.6 km/h 28.5 km/h 42 % 0 mm
15:02 -4 °C -11.7 °C 34533.8 hPa WNW 5.1 km/h 31.1 km/h 42 % 0 mm
15:07 -4.1 °C -11.8 °C 34533.8 hPa NNW 10.3 km/h 36.2 km/h 42 % 0 mm
15:12 -4.1 °C -11.9 °C 34533.8 hPa NNW 20.8 km/h 36.2 km/h 41 % 0 mm
15:17 -4.2 °C -12 °C 34533.8 hPa WNW 10.3 km/h 36.2 km/h 41 % 0 mm
15:22 -4 °C -12.3 °C 34533.8 hPa NW 15.6 km/h 31.1 km/h 39 % 0 mm
15:32 -4.1 °C -12.8 °C 34533.8 hPa WNW 7.7 km/h 33.6 km/h 37 % 0 mm
15:37 -4.1 °C -12.8 °C 34520.3 hPa WSW 7.7 km/h 33.6 km/h 37 % 0 mm
15:42 -4.1 °C -12.2 °C 34520.3 hPa NNW 18.2 km/h 23.3 km/h 40 % 0 mm
15:47 -4.1 °C -12.1 °C 34520.3 hPa WNW 15.6 km/h 28.5 km/h 40 % 0 mm
15:52 -4.2 °C -12.5 °C 34520.3 hPa West 10.3 km/h 28.5 km/h 39 % 0 mm
15:57 -4.3 °C -12.3 °C 34520.3 hPa WSW 5.1 km/h 31.1 km/h 40 % 0 mm
16:02 -4.3 °C -12.1 °C 34520.3 hPa West 15.6 km/h 31.1 km/h 41 % 0 mm
16:12 -4.3 °C -12.4 °C 34520.3 hPa NW 7.7 km/h 28.5 km/h 40 % 0 mm
16:22 -4.1 °C -12.2 °C 34510.1 hPa West 2.6 km/h 23.3 km/h 40 % 0 mm
16:27 -4.1 °C -12.1 °C 34510.1 hPa WNW 15.6 km/h 20.8 km/h 40 % 0 mm
16:32 -4.1 °C -12.1 °C 34520.3 hPa NW 18.2 km/h 28.5 km/h 40 % 0 mm
16:37 -4.1 °C -12.6 °C 34520.3 hPa WNW 18.2 km/h 33.6 km/h 38 % 0 mm
16:42 -4.1 °C -12.2 °C 34520.3 hPa West 15.6 km/h 33.6 km/h 40 % 0 mm
16:47 -4.3 °C -12.1 °C 34520.3 hPa WNW 10.3 km/h 33.6 km/h 41 % 0 mm
16:52 -4.3 °C -12.2 °C 34520.3 hPa West 12.9 km/h 28.5 km/h 41 % 0 mm
17:02 -4.4 °C -12 °C 34520.3 hPa NW 15.6 km/h 36.2 km/h 42 % 0 mm
17:12 -4.3 °C -12.1 °C 34520.3 hPa WSW 5.1 km/h 36.2 km/h 41 % 0 mm
17:17 -4.2 °C -12.3 °C 34520.3 hPa West 7.7 km/h 25.9 km/h 40 % 0 mm
17:22 -4.3 °C -12.1 °C 34520.3 hPa WSW 7.7 km/h 28.5 km/h 41 % 0 mm
17:27 -4.2 °C -11.8 °C 34520.3 hPa WNW 5.1 km/h 28.5 km/h 42 % 0 mm
17:32 -4.1 °C -11.8 °C 34520.3 hPa WNW 5.1 km/h 28.5 km/h 42 % 0 mm
17:37 -4.3 °C -11.7 °C 34520.3 hPa NW 10.3 km/h 28.5 km/h 43 % 0 mm
17:42 -4.3 °C -11.7 °C 34510.1 hPa Calm   28.5 km/h 43 % 0 mm
17:47 -4.3 °C -11.5 °C 34510.1 hPa NNW 7.7 km/h 28.5 km/h 44 % 0 mm
17:57 -4.3 °C -11.4 °C 34510.1 hPa NW 2.6 km/h 25.9 km/h 45 % 0 mm
18:02 -4.3 °C -11.4 °C 34510.1 hPa West 12.9 km/h 25.9 km/h 45 % 0 mm
18:12 -4.4 °C -11.7 °C 34510.1 hPa West 15.6 km/h 20.8 km/h 44 % 0 mm
18:17 -4.6 °C -11.6 °C 34510.1 hPa West 5.1 km/h 20.8 km/h 45 % 0 mm
18:22 -4.6 °C -11.4 °C 34510.1 hPa West 10.3 km/h 20.8 km/h 46 % 0 mm
18:27 -4.6 °C -11.4 °C 34510.1 hPa NW 5.1 km/h 25.9 km/h 46 % 0 mm
18:32 -4.6 °C -11.6 °C 34510.1 hPa WNW 5.1 km/h 25.9 km/h 45 % 0 mm
18:42 -4.4 °C -11.6 °C 34496.6 hPa Calm   25.9 km/h 44 % 0 mm
18:47 -4.4 °C -11.8 °C 34496.6 hPa WNW 5.1 km/h 23.3 km/h 43 % 0 mm
18:52 -4.4 °C -12 °C 34496.6 hPa WNW 12.9 km/h 23.3 km/h 42 % 0 mm
18:57 -4.5 °C -11.7 °C 34496.6 hPa NNW 5.1 km/h 20.8 km/h 44 % 0 mm
19:02 -4.3 °C -11.6 °C 34496.6 hPa NW 5.1 km/h 20.8 km/h 44 % 0 mm
19:12 -4.3 °C -11.7 °C 34496.6 hPa WNW 12.9 km/h 23.3 km/h 43 % 0 mm
19:17 -4.3 °C -11.6 °C 34496.6 hPa West 2.6 km/h 23.3 km/h 44 % 0 mm
19:22 -4.5 °C -11.7 °C 34496.6 hPa WNW 10.3 km/h 23.3 km/h 44 % 0 mm
19:27 -4.5 °C -11.6 °C 34496.6 hPa West 12.9 km/h 20.8 km/h 45 % 0 mm
19:32 -4.6 °C -11.6 °C 34496.6 hPa West 7.7 km/h 18.2 km/h 45 % 0 mm
19:37 -4.6 °C -11.6 °C 34496.6 hPa WNW 10.3 km/h 18.2 km/h 45 % 0 mm
19:42 -4.7 °C -11.5 °C 34496.6 hPa WNW 7.7 km/h 18.2 km/h 46 % 0 mm
19:47 -4.8 °C -11.4 °C 34496.6 hPa WNW 7.7 km/h 15.6 km/h 47 % 0 mm
19:52 -4.8 °C -11.4 °C 34496.6 hPa Calm   15.6 km/h 47 % 0 mm
19:57 -4.9 °C -11.5 °C 34496.6 hPa West 5.1 km/h 15.6 km/h 47 % 0 mm
20:02 -4.9 °C -11.4 °C 34496.6 hPa West 2.6 km/h 12.9 km/h 48 % 0 mm
20:07 -4.9 °C -11.4 °C 34496.6 hPa WNW 2.6 km/h 10.3 km/h 48 % 0 mm
20:12 -5.1 °C -11.5 °C 34496.6 hPa WNW 5.1 km/h 18.2 km/h 48 % 0 mm
20:17 -5.1 °C -11.3 °C 34496.6 hPa WNW 7.7 km/h 18.2 km/h 49 % 0 mm
20:22 -5.1 °C -11.4 °C 34496.6 hPa West 2.6 km/h 18.2 km/h 49 % 0 mm
20:27 -5.2 °C -11.3 °C 34496.6 hPa West 7.7 km/h 12.9 km/h 50 % 0 mm
20:32 -5.2 °C -11.3 °C 34510.1 hPa West 2.6 km/h 12.9 km/h 50 % 0 mm
20:37 -5.3 °C -11.3 °C 34510.1 hPa WNW 7.7 km/h 12.9 km/h 50 % 0 mm
20:42 -5.3 °C -11.2 °C 34510.1 hPa WNW 5.1 km/h 15.6 km/h 51 % 0 mm
20:47 -5.4 °C -11.1 °C 34510.1 hPa WNW 5.1 km/h 15.6 km/h 52 % 0 mm
20:52 -5.4 °C -11.2 °C 34510.1 hPa WNW 2.6 km/h 15.6 km/h 52 % 0 mm
20:57 -5.5 °C -11.1 °C 34510.1 hPa West 2.6 km/h 10.3 km/h 53 % 0 mm
21:02 -5.6 °C -11.2 °C 34510.1 hPa Calm   10.3 km/h 53 % 0 mm
21:12 -5.7 °C -11.1 °C 34510.1 hPa WNW 2.6 km/h 5.1 km/h 54 % 0 mm
21:17 -5.8 °C -11.2 °C 34510.1 hPa NNW 2.6 km/h 5.1 km/h 54 % 0 mm
21:22 -5.8 °C -11.1 °C 34510.1 hPa WNW 2.6 km/h 5.1 km/h 55 % 0 mm
21:27 -5.9 °C -11.1 °C 34510.1 hPa Calm   5.1 km/h 55 % 0 mm
21:32 -6 °C -11.1 °C 34510.1 hPa Calm   5.1 km/h 56 % 0 mm
21:37 -6.1 °C -11.3 °C 34510.1 hPa Calm   5.1 km/h 55 % 0 mm
21:42 -6.2 °C -11.3 °C 34510.1 hPa Calm   2.6 km/h 56 % 0 mm
21:47 -6.3 °C -11.2 °C 34510.1 hPa Calm   2.6 km/h 57 % 0 mm
21:52 -6.5 °C -11.2 °C 34510.1 hPa Calm   2.6 km/h 58 % 0 mm
21:57 -6.6 °C -11.1 °C 34510.1 hPa Calm     60 % 0 mm
22:12 -6.9 °C -11.1 °C 34510.1 hPa Calm     62 % 0 mm
22:17 -7.1 °C -11.2 °C 34510.1 hPa Calm     62 % 0 mm
22:22 -7.1 °C -11.1 °C 34510.1 hPa Calm     63 % 0 mm
22:32 -7.1 °C -11.1 °C 34510.1 hPa Calm     63 % 0 mm
22:37 -7.1 °C -11.1 °C 34510.1 hPa Calm     63 % 0 mm
22:42 -7.2 °C -10.9 °C 34510.1 hPa Calm     65 % 0 mm
22:47 -7.3 °C -11.1 °C 34510.1 hPa Calm     65 % 0 mm
22:52 -7.4 °C -11 °C 34510.1 hPa Calm     66 % 0 mm
22:57 -7.6 °C -11.2 °C 34510.1 hPa Calm     66 % 0 mm
23:02 -7.7 °C -11.1 °C 34510.1 hPa Calm     67 % 0 mm
23:07 -7.7 °C -11.1 °C 34510.1 hPa Calm     68 % 0 mm
23:12 -7.8 °C -11.1 °C 34510.1 hPa Calm     68 % 0 mm
23:17 -7.9 °C -11.1 °C 34510.1 hPa Calm     69 % 0 mm
23:22 -7.9 °C -11.2 °C 34510.1 hPa Calm     69 % 0 mm
23:27 -8 °C -11.1 °C 34510.1 hPa Calm     70 % 0 mm
23:32 -8 °C -10.9 °C 34510.1 hPa Calm     71 % 0 mm
23:37 -8.1 °C -11.1 °C 34510.1 hPa Calm     71 % 0 mm
23:42 -8.1 °C -11.1 °C 34510.1 hPa Calm     71 % 0 mm
23:52 -8.1 °C -10.9 °C 34510.1 hPa Calm   2.6 km/h 72 % 0 mm
23:57 -8.1 °C -10.9 °C 34510.1 hPa WNW 2.6 km/h 2.6 km/h 72 % 0 mm
Meteo18
Compliments of Weather Underground - 4 mb

Script developed by  Jim McMurry - jmcmurry@mwt.net Adapted for the template by  Wim van der Kuil - Leuven-Template.eu

You find our weather info also at:

European Weather Network

Weather Underground

Equipment we use:

Weather-station
Davis Vue

Weather-program
Meteobridge

Weather-server
Raspberry PI 2 B+

Provider
1 and 1

Davis Vue

Meteobridge

Raspberry PI 2 B+

1 and 1